Relevés horaires Semmerzake (Belgique)


Relevés horaires à Semmerzake - Samedi 27 Mars 2021
Heure UTC1 Température [°C] Vent [km/h] Hum. [%] Pres.4 [hPa] Visi. [Km] Nébu. [octa] Préc.5 [mm] Cond.
2m. Res. Ros. Dir.2 Vit. Moy. Raf.3
23:00 6.3 5.3 2.9 SSO 5.6 -- 9.3 79 1027.4(0.3/3h) 18 -- -- --
22:00 6.1 5.1 2.3 SSO 5.6 -- 7.4 77 1027.4(0.7/3h) 20 -- -- --
21:00 6.5 5.6 2.2 SSO 5.6 -- 7.4 74 1027(1.0/3h) 19 -- -- --
20:00 7.7 6.9 1.8 SO 5.6 -- 7.4 66 1027(1.3/3h) 20 -- -- --
19:00 8.3 8.3 1.4 NNO 0.0 -- 0.0 62 1026.7(1.4/3h) 20 -- -- --
18:00 8.9 8.9 0.5 NNO 0.0 -- 0.0 56 1026(1.1/3h) 20 -- -- --
17:00 9.3 9.3 -0.4 NNO 0.0 -- 0.0 51 1025.7(1.1/3h) 20 -- -- --
16:00 10.2 10.2 -1.6 NNO 0.0 -- 0.0 44 1025.2(1.1/3h) 17 -- -- --
15:00 10.7 10.7 -1.1 NNO 0.0 -- 0.0 44 1024.9(1.1/3h) 20 -- -- --
14:00 9.7 9.7 -1.8 NNO 0.0 -- 0.0 44 1024.5(1.4/3h) 20 -- -- --
13:00 10.5 10.5 -0.7 NNO 0.0 -- 0.0 46 1024(1.5/3h) 19 -- -- --
12:00 9.4 9.4 -1.6 NNO 0.0 -- 0.0 46 1023.7(2.2/3h) 14 -- -- --
11:00 8.9 8.9 -1.8 NNO 0.0 -- 0.0 47 1023.1(3.0/3h) 20 -- -- --
10:00 7.8 7.8 -0.8 NNO 0.0 -- 0.0 54 1022.6(3.3/3h) 20 -- -- --
09:00 6.7 6.7 0.8 NNO 0.0 -- 0.0 66 1021.3(3.0/3h) 15 -- -- --
08:00 6.6 6.6 1.7 NNO 0.0 -- 0.0 71 1020.2(2.8/3h) 20 -- -- --
07:00 5.0 5.0 2.5 NNO 0.0 -- 0.0 84 1019.2(2.7/3h) 17 -- -- --
06:00 4.4 4.4 1.6 NNO 0.0 -- 0.0 82 1018.5(2.9/3h) 18 -- 2/12h
NA
05:00 4.9 4.9 2.0 NNO 0.0 -- 0.0 81 1017.2(2.3/3h) 20 -- -- NA
04:00 5.3 5.3 3.2 NNO 0.0 -- 0.0 86 1016.2(1.5/3h) 17 -- -- --
03:00 5.1 5.1 3.0 NNO 0.0 -- 0.0 86 1015.3(0.9/3h) 19 -- -- --
02:00 5.4 5.4 3.5 NNO 0.0 -- 0.0 88 1014.8(0.8/3h) 19 -- -- --
01:00 5.4 5.4 3.7 NNO 0.0 -- 0.0 89 1014.7(0.9/3h) 19 -- -- --
00:00 5.6 5.6 3.8 NNO 0.0 -- 0.0 88 1014.3(0.5/3h) 20 -- 1/6h
NA

1 Coordinated Universal Time. Actuellement il est 13:00 locale et 12:00 UTC.

2 Le vent souffle depuis la direction indiquée vers la direction oposée.

3 Les rafales max. sont disponible 40 min après l'heure du relevé.

4 Pour les stations d'altitude (plus de 600m) le géopotentiel du niveau le plus proche de la pression obligatoire est indiqué.

5 Les stations disposant d'un diffuseur peuvent indiquer "trace". Cela signifie que des précipitations ont touchés le sol mais que la quantité est inférieure à 0.1 mm.

Récapitulatif de la journée
Température [°C] Vent [km/h] Ensoleillement4 [h] Precipitations totale5 [mm] Pression [Hpa]
Min1 Max.2 Moy.3 Max. Min Max.
4.2 10.9 0 9.3 0 h 0 min 0 1014.3 1027.4

1 Température minimale relevée entre 18:00 UTC la veille et 18:00 UTC le jour donné.

2 Température maximale relevée entre 06:00 UTC le jour donné et 06:00 UTC le lendemain.

3 Vent moyen de la journée basé sur les relevés horaires.

4 Ensoleillement en heures relevé entre 06:00 UTC la veille et 06:00 UTC le jour donné.

5 Précipitations totales tombées entre 06:00 UTC la jour donné et 06:00 UTC le lendemain.

Graphiques horaires